Innis, Louisiana
Current Conditions -  °F | °C
As of 6:15 AM on Saturday 01 Nov 2014 (Local Time) from KHZR Reporting Station
Clear Clear  
Wind Chill: 34°   Ceiling: Unl
Heat Index: 39°   Visibility: 10mi
Dew Point: 28°   Wind: 7mph
Humidity: 63%   Direction: 10°N
Pressure: 30.32"   Gusts: NA
Location:  30.88°N, 91.68°W
Report Text: KHZR 011115Z AUTO 01006KT 10SM CLR 04/M02 A3032 RMK AO2 T00411024
Loading
Personal Weather Stations






























Interactive Weather Map
Tropical Storm Tracking
New forecast layout! Learn more

10-Day Weather Forecast

Advertisements
Track Severe Weather on mobile